Flight Track Log - Related Links

Times and Time Zones

All times are in EDT time to prevent confusion due to time zone crossing. See the N502QS flight status page for this flight to view local times or setup timezone preferences in your user account.

Time Position Orientation Groundspeed Altitude Reporting Facility
EDT Latitude Longitude Course Direction KTS MPH feet Rate Location/Type
Thu 04:50:58 PM 29.9639 -95.4133 272° West 276 318 4,000  Level Houston Center
Thu 04:51:54 PM 30.0347 -95.4072 North 272 313 4,000  Level Houston Center
Thu 04:52:55 PM 30.1094 -95.3981 North 271 312 4,000 1,172 Level Houston Center
Thu 04:54:02 PM 30.1967 -95.3875 North 275 316 6,500 2,897 Climbing Houston Center
Thu 04:55:20 PM 30.2606 -95.3036 49° Northeast 284 327 11,000 2,743 Climbing Houston Center
Thu 04:56:22 PM 30.3094 -95.2019 61° Northeast 356 410 12,900 2,371 Climbing Houston Center
Thu 04:57:24 PM 30.3617 -95.0944 61° Northeast 377 434 15,900 2,952 Climbing Houston Center
Thu 04:58:26 PM 30.4358 -94.9800 53° Northeast 408 470 19,000 2,468 Climbing Houston Center
Thu 04:59:28 PM 30.5358 -94.9053 33° Northeast 426 490 21,000 960 Climbing Houston Center
Thu 05:00:31 PM 30.6347 -94.8278 34° Northeast 430 495 21,000  Level Houston Center
Thu 05:01:33 PM 30.7275 -94.7436 38° Northeast 427 491 21,000  Level Houston Center
Thu 05:02:35 PM 30.8031 -94.6361 51° Northeast 429 494 21,000  Level Houston Center
Thu 05:03:37 PM 30.8908 -94.5058 52° Northeast 430 495 21,000  Level Houston Center
Thu 05:04:39 PM 30.9647 -94.3961 52° Northeast 433 498 21,000  Level Houston Center
Thu 05:05:41 PM 31.0361 -94.2889 52° Northeast 424 488 21,000  Level Houston Center
Thu 05:07:00 PM 31.1003 -94.1778 56° Northeast  Level FlightAware Approximate
Thu 05:07:45 PM 31.1825 -94.0689 56° Northeast 430 495 21,000  Level Houston Center
Thu 05:08:48 PM 31.2708 -93.9378 52° Northeast 428 493 21,000  Level Houston Center
Thu 05:09:50 PM 31.3422 -93.8283 53° Northeast 426 490 21,000  Level Houston Center
Thu 05:10:52 PM 31.4156 -93.7181 52° Northeast 428 493 21,000  Level Houston Center
Thu 05:11:54 PM 31.4883 -93.6083 52° Northeast 428 493 21,000  Level Houston Center
Thu 05:12:56 PM 31.5681 -93.4861 53° Northeast 428 493 21,000  Level Houston Center
Thu 05:13:58 PM 31.6411 -93.3742 53° Northeast 429 494 21,000  Level Houston Center
Thu 05:15:00 PM 31.7144 -93.2633 52° Northeast 428 493 21,000 -823 Level Houston Center
Thu 05:16:02 PM 31.7839 -93.1542 53° Northeast 421 484 19,300 -1,645 Descending Houston Center
Thu 05:17:04 PM 31.8469 -93.0569 53° Northeast 386 444 17,600 -1,632 Descending Houston Center
Thu 05:18:07 PM 31.9106 -92.9586 53° Northeast 378 435 15,900 -1,776 Descending Houston Center
Thu 05:19:09 PM 31.9856 -92.8406 53° Northeast 374 430 13,900 -1,742 Descending Houston Center
Thu 05:20:11 PM 32.0467 -92.7461 53° Northeast 367 422 12,300 -1,452 Descending Houston Center
Thu 05:21:13 PM 32.0994 -92.6636 53° Northeast 327 376 10,900 -1,306 Descending Houston Center
Thu 05:22:15 PM 32.1478 -92.5867 53° Northeast 298 343 9,600 -1,258 Descending Houston Center

Login

Don't have an account? Register now (free) for customized features, flight alerts, and more!